createdAt,value
2022-12-11T00:00:29.760Z,10.73
2022-12-11T00:02:57.083Z,11.80
2022-12-11T00:05:24.325Z,11.95
2022-12-11T00:07:51.295Z,12.55
2022-12-11T00:10:18.321Z,12.63
2022-12-11T00:12:45.176Z,11.90
2022-12-11T00:15:12.515Z,12.10
2022-12-11T00:20:34.518Z,11.68
2022-12-11T00:23:01.732Z,10.60
2022-12-11T00:25:28.871Z,10.48
2022-12-11T00:27:56.106Z,10.50
2022-12-11T00:30:23.088Z,10.02
2022-12-11T00:32:52.270Z,10.48
2022-12-11T00:35:19.371Z,10.38
2022-12-11T00:37:46.263Z,10.63
2022-12-11T00:40:13.240Z,9.95
2022-12-11T00:42:40.092Z,10.23
2022-12-11T00:45:07.809Z,10.20
2022-12-11T00:47:34.886Z,9.70
2022-12-11T00:50:01.739Z,9.63
2022-12-11T00:52:28.635Z,9.60
2022-12-11T00:54:55.660Z,9.50
2022-12-11T00:57:22.708Z,8.52
2022-12-11T00:59:50.104Z,9.05
2022-12-11T01:02:17.004Z,8.95
2022-12-11T01:04:44.637Z,9.50
2022-12-11T01:07:11.558Z,9.13
2022-12-11T01:09:56.901Z,8.38
2022-12-11T01:12:23.963Z,8.93
2022-12-11T01:14:51.269Z,9.45
2022-12-11T01:17:18.149Z,8.52
2022-12-11T01:19:45.218Z,8.40
2022-12-11T01:22:12.108Z,9.15
2022-12-11T01:24:38.914Z,10.20
2022-12-11T01:27:05.722Z,9.70
2022-12-11T01:29:34.306Z,9.40
2022-12-11T01:32:01.131Z,9.52
2022-12-11T01:34:31.557Z,9.43
2022-12-11T01:36:58.423Z,9.55
2022-12-11T01:39:25.428Z,8.27
2022-12-11T01:41:58.486Z,9.38
2022-12-11T01:44:25.248Z,8.63
2022-12-11T01:46:53.337Z,8.73
2022-12-11T01:49:23.520Z,8.80
2022-12-11T01:52:01.943Z,9.73
2022-12-11T01:54:30.388Z,9.80
2022-12-11T01:57:04.712Z,10.07
2022-12-11T01:59:35.622Z,10.13
2022-12-11T02:02:18.175Z,10.93
2022-12-11T02:04:46.476Z,11.30
2022-12-11T02:07:13.503Z,10.95
2022-12-11T02:09:42.985Z,11.27
2022-12-11T02:12:26.421Z,9.45
2022-12-11T02:15:21.300Z,11.10
2022-12-11T02:17:53.176Z,11.27
2022-12-11T02:20:54.550Z,11.73
2022-12-11T02:23:27.815Z,11.38
2022-12-11T02:26:13.072Z,11.30
2022-12-11T02:28:52.263Z,11.07
2022-12-11T02:31:27.932Z,11.05
2022-12-11T02:34:13.214Z,11.15
2022-12-11T02:36:45.247Z,10.98
2022-12-11T02:39:15.803Z,11.23
2022-12-11T02:41:46.863Z,11.02
2022-12-11T02:44:17.281Z,10.25
2022-12-11T02:46:44.788Z,11.05
2022-12-11T02:49:13.898Z,11.45
2022-12-11T02:51:42.735Z,11.98
2022-12-11T02:54:16.213Z,11.45
2022-12-11T02:56:51.051Z,11.02
2022-12-11T02:59:29.180Z,10.77
2022-12-11T03:01:56.264Z,10.35
2022-12-11T03:04:25.195Z,11.95
2022-12-11T03:06:56.605Z,11.75
2022-12-11T03:09:23.786Z,11.52
2022-12-11T03:11:50.592Z,11.07
2022-12-11T03:14:17.571Z,10.07
2022-12-11T03:17:14.551Z,10.85
2022-12-11T03:19:55.906Z,11.00
2022-12-11T03:22:34.097Z,11.80
2022-12-11T03:25:32.616Z,11.65
2022-12-11T03:28:22.342Z,11.32
2022-12-11T03:30:51.588Z,11.35
2022-12-11T03:33:27.401Z,12.05
2022-12-11T03:35:59.511Z,11.73
2022-12-11T03:38:39.183Z,11.18
2022-12-11T03:41:08.199Z,11.70
2022-12-11T03:43:36.010Z,10.43
2022-12-11T03:46:03.474Z,11.23
2022-12-11T03:48:33.857Z,10.20
2022-12-11T03:51:04.550Z,10.55
2022-12-11T03:53:33.732Z,9.63
2022-12-11T03:56:02.101Z,10.75
2022-12-11T03:58:29.217Z,10.35
2022-12-11T04:00:56.359Z,12.18
2022-12-11T04:03:23.263Z,12.52
2022-12-11T04:05:52.969Z,11.35
2022-12-11T04:08:21.659Z,11.88
2022-12-11T04:11:10.196Z,10.25
2022-12-11T04:13:37.614Z,11.23
2022-12-11T04:16:04.596Z,12.05
2022-12-11T04:18:49.791Z,9.98
2022-12-11T04:21:39.489Z,10.65
2022-12-11T04:24:16.691Z,10.45
2022-12-11T04:26:45.709Z,12.05
2022-12-11T04:29:13.289Z,12.77
2022-12-11T04:31:40.312Z,11.55
2022-12-11T04:34:07.260Z,11.07
2022-12-11T04:36:34.603Z,12.10
2022-12-11T04:39:01.414Z,11.60
2022-12-11T04:41:29.087Z,12.63
2022-12-11T04:43:55.883Z,12.50
2022-12-11T04:46:24.390Z,13.25
2022-12-11T04:48:57.099Z,12.15
2022-12-11T04:51:25.031Z,12.60
2022-12-11T04:53:52.031Z,12.77
2022-12-11T04:56:18.997Z,13.45
2022-12-11T04:58:46.803Z,14.48
2022-12-11T05:01:16.614Z,12.57
2022-12-11T05:03:43.676Z,13.65
2022-12-11T05:06:11.557Z,13.85
2022-12-11T05:08:40.630Z,14.10
2022-12-11T05:11:09.986Z,13.55
2022-12-11T05:13:37.638Z,13.73
2022-12-11T05:16:06.206Z,13.88
2022-12-11T05:18:33.261Z,12.43
2022-12-11T05:21:06.182Z,12.93
2022-12-11T05:23:33.326Z,13.60
2022-12-11T05:26:03.522Z,14.25
2022-12-11T05:28:36.147Z,12.82
2022-12-11T05:31:08.847Z,12.57
2022-12-11T05:33:35.835Z,12.73
2022-12-11T05:36:03.425Z,12.60
2022-12-11T05:38:30.663Z,11.75
2022-12-11T05:41:04.865Z,12.70
2022-12-11T05:43:33.540Z,12.38
2022-12-11T05:46:14.961Z,11.60
2022-12-11T05:48:42.726Z,12.07
2022-12-11T05:51:09.940Z,11.48
2022-12-11T05:53:38.269Z,11.18
2022-12-11T05:56:16.406Z,12.32
2022-12-11T05:58:44.988Z,11.75
2022-12-11T06:01:28.264Z,11.48
2022-12-11T06:03:56.080Z,10.35
2022-12-11T06:06:23.945Z,10.27
2022-12-11T06:08:51.705Z,11.68
2022-12-11T06:11:23.784Z,10.93
2022-12-11T06:13:52.386Z,11.60
2022-12-11T06:16:20.156Z,11.18
2022-12-11T06:18:48.038Z,11.05
2022-12-11T06:21:19.028Z,11.45
2022-12-11T06:23:47.485Z,12.10
2022-12-11T06:26:15.191Z,11.30
2022-12-11T06:28:42.113Z,11.13
2022-12-11T06:31:09.005Z,11.40
2022-12-11T06:33:36.333Z,11.02
2022-12-11T06:36:16.279Z,11.93
2022-12-11T06:38:43.820Z,10.80
2022-12-11T06:41:11.414Z,12.00
2022-12-11T06:43:40.327Z,11.07
2022-12-11T06:46:10.069Z,11.40
2022-12-11T06:48:37.065Z,11.55
2022-12-11T06:51:12.689Z,12.32
2022-12-11T06:53:40.235Z,10.85
2022-12-11T06:56:10.269Z,10.50
2022-12-11T06:58:37.868Z,11.13
2022-12-11T07:01:13.620Z,11.23
2022-12-11T07:03:41.529Z,12.65
2022-12-11T07:06:08.879Z,15.27
2022-12-11T07:08:36.157Z,13.05
2022-12-11T07:11:05.693Z,12.38
2022-12-11T07:13:33.008Z,13.40
2022-12-11T07:16:02.066Z,16.45
2022-12-11T07:18:29.204Z,12.63
2022-12-11T07:20:59.158Z,11.75
2022-12-11T07:23:28.663Z,12.18
2022-12-11T07:25:56.413Z,12.50
2022-12-11T07:28:23.432Z,12.20
2022-12-11T07:30:50.385Z,15.35
2022-12-11T07:33:17.395Z,16.00
2022-12-11T07:35:44.423Z,12.30
2022-12-11T07:38:11.805Z,12.57
2022-12-11T07:40:38.616Z,11.77
2022-12-11T07:43:05.473Z,12.20
2022-12-11T07:45:32.530Z,11.45
2022-12-11T07:47:59.737Z,14.15
2022-12-11T07:50:26.551Z,11.82
2022-12-11T07:52:53.559Z,14.73
2022-12-11T07:55:20.399Z,12.95
2022-12-11T07:57:47.333Z,12.70
2022-12-11T08:00:14.911Z,12.20
2022-12-11T08:02:42.145Z,11.98
2022-12-11T08:05:09.355Z,11.48
2022-12-11T08:07:36.447Z,12.52
2022-12-11T08:10:04.901Z,11.20
2022-12-11T08:12:31.747Z,11.48
2022-12-11T08:14:58.575Z,11.50
2022-12-11T08:17:29.557Z,12.77
2022-12-11T08:19:57.937Z,10.68
2022-12-11T08:22:24.800Z,11.68
2022-12-11T08:24:51.832Z,11.93
2022-12-11T08:27:18.777Z,11.75
2022-12-11T08:29:47.824Z,12.90
2022-12-11T08:32:16.879Z,12.15
2022-12-11T08:34:46.038Z,15.23
2022-12-11T08:37:13.809Z,16.35
2022-12-11T08:39:40.729Z,16.38
2022-12-11T08:42:07.796Z,14.73
2022-12-11T08:44:35.843Z,16.25
2022-12-11T08:47:03.009Z,15.60
2022-12-11T08:49:34.353Z,11.57
2022-12-11T08:52:03.576Z,10.85
2022-12-11T08:54:30.543Z,11.13
2022-12-11T08:56:58.431Z,11.98
2022-12-11T08:59:25.951Z,12.10
2022-12-11T09:01:55.363Z,11.10
2022-12-11T09:04:23.822Z,11.23
2022-12-11T09:06:50.677Z,11.13
2022-12-11T09:09:20.625Z,11.02
2022-12-11T09:11:48.105Z,12.07
2022-12-11T09:14:16.188Z,11.95
2022-12-11T09:16:43.576Z,12.07
2022-12-11T09:19:14.433Z,11.88
2022-12-11T09:21:42.971Z,11.23
2022-12-11T09:24:11.975Z,11.00
2022-12-11T09:26:39.519Z,10.85
2022-12-11T09:29:07.477Z,16.60
2022-12-11T09:31:36.462Z,12.23
2022-12-11T09:34:06.766Z,13.50
2022-12-11T09:36:34.965Z,10.25
2022-12-11T09:39:04.735Z,11.85
2022-12-11T09:41:55.129Z,9.77
2022-12-11T09:44:42.531Z,12.70
2022-12-11T09:47:36.218Z,8.07
2022-12-11T09:50:09.081Z,13.70
2022-12-11T09:52:35.944Z,10.75
2022-12-11T09:55:19.843Z,11.48
2022-12-11T09:58:22.402Z,8.90
2022-12-11T10:01:18.100Z,12.38
2022-12-11T10:04:09.808Z,9.98
2022-12-11T10:07:04.112Z,8.80
2022-12-11T10:09:34.082Z,10.00
2022-12-11T10:12:15.054Z,19.90
2022-12-11T10:15:00.837Z,62.20
2022-12-11T10:17:37.253Z,15.95
2022-12-11T10:20:19.016Z,16.92
2022-12-11T10:22:47.046Z,20.35
2022-12-11T10:25:31.701Z,14.05
2022-12-11T10:28:00.556Z,16.33
2022-12-11T10:30:37.754Z,12.70
2022-12-11T10:33:19.881Z,22.20
2022-12-11T10:35:56.040Z,18.52
2022-12-11T10:38:33.779Z,19.60
2022-12-11T10:41:11.866Z,18.05
2022-12-11T10:43:47.077Z,14.95
2022-12-11T10:46:20.662Z,15.57
2022-12-11T10:48:53.617Z,22.00
2022-12-11T10:51:24.758Z,11.13
2022-12-11T10:54:06.879Z,12.15
2022-12-11T10:56:37.582Z,13.50
2022-12-11T10:59:05.064Z,12.52
2022-12-11T11:01:33.250Z,11.68
2022-12-11T11:04:01.077Z,12.02
2022-12-11T11:06:28.083Z,11.73
2022-12-11T11:08:58.232Z,10.40
2022-12-11T11:11:27.208Z,10.52
2022-12-11T11:14:23.339Z,9.13
2022-12-11T11:16:52.889Z,8.27
2022-12-11T11:19:24.776Z,10.63
2022-12-11T11:21:55.254Z,8.90
2022-12-11T11:24:30.044Z,10.65
2022-12-11T11:27:13.261Z,9.43
2022-12-11T11:29:42.090Z,9.88
2022-12-11T11:32:20.325Z,9.32
2022-12-11T11:34:47.212Z,10.38
2022-12-11T11:37:34.762Z,10.23
2022-12-11T11:40:38.688Z,9.45
2022-12-11T11:43:15.833Z,8.38
2022-12-11T11:46:01.248Z,9.73
2022-12-11T11:48:40.547Z,8.45
2022-12-11T11:51:15.445Z,13.27
2022-12-11T11:53:47.583Z,8.25
2022-12-11T11:56:21.634Z,9.80
2022-12-11T11:58:57.715Z,10.50
2022-12-11T12:01:25.020Z,11.93
2022-12-11T12:03:52.876Z,7.68
2022-12-11T12:06:50.719Z,7.53
2022-12-11T12:09:26.436Z,7.03
2022-12-11T12:12:19.413Z,6.55
2022-12-11T12:14:58.929Z,12.27
2022-12-11T12:21:23.026Z,8.60
2022-12-11T12:24:20.782Z,9.07
2022-12-11T12:27:01.867Z,8.30
2022-12-11T12:29:48.987Z,8.00
2022-12-11T12:32:36.852Z,7.10
2022-12-11T12:35:10.855Z,6.82
2022-12-11T12:38:09.669Z,7.22
2022-12-11T12:41:05.652Z,7.72
2022-12-11T12:43:35.719Z,7.90
2022-12-11T12:46:15.754Z,7.93
2022-12-11T12:48:42.790Z,7.28
2022-12-11T12:51:14.236Z,8.48
2022-12-11T12:53:47.332Z,15.85
2022-12-11T12:56:15.727Z,13.93
2022-12-11T12:58:45.446Z,8.10
2022-12-11T13:01:13.131Z,13.05
2022-12-11T13:03:53.996Z,13.25
2022-12-11T13:06:42.104Z,8.27
2022-12-11T13:09:12.203Z,7.63
2022-12-11T13:11:40.361Z,6.93
2022-12-11T13:14:24.183Z,7.50
2022-12-11T13:17:04.380Z,8.10
2022-12-11T13:19:42.105Z,7.32
2022-12-11T13:22:12.624Z,6.97
2022-12-11T13:25:19.668Z,7.47
2022-12-11T13:27:52.635Z,9.48
2022-12-11T13:30:19.533Z,10.10
2022-12-11T13:33:03.278Z,8.13
2022-12-11T13:38:17.286Z,10.20
2022-12-11T13:40:47.004Z,10.18
2022-12-11T13:43:25.125Z,8.98
2022-12-11T13:45:59.152Z,7.15
2022-12-11T13:48:30.099Z,9.15
2022-12-11T13:51:00.352Z,5.68
2022-12-11T13:53:28.252Z,8.02
2022-12-11T13:56:09.692Z,6.32
2022-12-11T13:58:41.396Z,7.78
2022-12-11T14:01:16.719Z,6.53
2022-12-11T14:04:05.013Z,7.90
2022-12-11T14:06:33.628Z,8.90
2022-12-11T14:09:01.970Z,7.88
2022-12-11T14:11:34.533Z,8.00
2022-12-11T14:14:06.767Z,11.25
2022-12-11T14:16:34.451Z,15.50
2022-12-11T14:19:16.576Z,9.35
2022-12-11T14:21:55.821Z,9.53
2022-12-11T14:24:23.467Z,9.07
2022-12-11T14:26:52.453Z,5.47
2022-12-11T14:29:27.248Z,6.45
2022-12-11T14:31:55.122Z,6.28
2022-12-11T14:34:28.749Z,4.93
2022-12-11T14:36:57.190Z,5.25
2022-12-11T14:39:37.999Z,6.47
2022-12-11T14:42:14.984Z,5.82
2022-12-11T14:44:55.919Z,6.38
2022-12-11T14:47:29.284Z,8.32
2022-12-11T14:52:43.215Z,7.80
2022-12-11T14:55:14.620Z,5.75
2022-12-11T14:57:46.625Z,7.40
2022-12-11T15:03:24.675Z,6.20
2022-12-11T15:05:56.635Z,5.40
2022-12-11T15:08:35.384Z,6.80
2022-12-11T15:11:12.772Z,5.13
2022-12-11T15:13:59.023Z,4.65
2022-12-11T15:16:32.025Z,5.95
2022-12-11T15:18:59.879Z,4.68
2022-12-11T15:21:36.099Z,4.45
2022-12-11T15:24:05.847Z,4.30
2022-12-11T15:26:40.563Z,5.05
2022-12-11T15:29:26.812Z,6.32
2022-12-11T15:32:08.205Z,7.43
2022-12-11T15:34:42.156Z,5.15
2022-12-11T15:37:23.060Z,4.80
2022-12-11T15:39:51.200Z,4.93
2022-12-11T15:42:42.117Z,9.45
2022-12-11T15:45:18.953Z,10.75
2022-12-11T15:47:48.705Z,15.98
2022-12-11T15:50:25.585Z,13.25
2022-12-11T15:52:54.179Z,14.45
2022-12-11T15:55:23.037Z,18.25
2022-12-11T15:57:56.030Z,21.92
2022-12-11T16:00:24.143Z,13.63
2022-12-11T16:02:52.276Z,9.05
2022-12-11T16:05:20.073Z,8.27
2022-12-11T16:07:47.842Z,8.40
2022-12-11T16:10:19.361Z,9.35
2022-12-11T16:12:51.233Z,8.90
2022-12-11T16:15:28.230Z,9.25
2022-12-11T16:18:09.013Z,11.73
2022-12-11T16:20:37.849Z,12.35
2022-12-11T16:23:05.765Z,8.80
2022-12-11T16:25:33.089Z,8.20
2022-12-11T16:28:02.498Z,8.18
2022-12-11T16:30:30.148Z,7.35
2022-12-11T16:32:57.503Z,7.25
2022-12-11T16:35:24.890Z,6.63
2022-12-11T16:37:54.961Z,5.97
2022-12-11T16:40:22.674Z,6.93
2022-12-11T16:42:50.915Z,6.22
2022-12-11T16:45:23.760Z,5.35
2022-12-11T16:47:51.261Z,8.87
2022-12-11T16:50:20.354Z,7.70
2022-12-11T16:52:47.565Z,8.70
2022-12-11T16:55:15.320Z,5.47
2022-12-11T16:57:42.596Z,7.03
2022-12-11T17:00:12.862Z,6.53
2022-12-11T17:02:41.667Z,5.95
2022-12-11T17:05:08.939Z,6.38
2022-12-11T17:07:36.879Z,6.63
2022-12-11T17:10:04.642Z,9.32
2022-12-11T17:12:32.018Z,7.95
2022-12-11T17:15:01.608Z,6.45
2022-12-11T17:17:28.747Z,7.00
2022-12-11T17:19:56.013Z,7.03
2022-12-11T17:22:23.311Z,5.45
2022-12-11T17:24:50.357Z,6.18
2022-12-11T17:27:18.010Z,6.15
2022-12-11T17:29:45.032Z,6.85
2022-12-11T17:32:11.992Z,7.63
2022-12-11T17:34:38.964Z,6.68
2022-12-11T17:37:06.478Z,6.68
2022-12-11T17:39:34.027Z,6.93
2022-12-11T17:42:03.059Z,6.55
2022-12-11T17:44:31.339Z,6.28
2022-12-11T17:46:58.931Z,6.15
2022-12-11T17:49:26.659Z,6.32
2022-12-11T17:51:55.567Z,6.07
2022-12-11T17:54:24.030Z,6.82
2022-12-11T17:56:51.647Z,7.03
2022-12-11T17:59:18.743Z,7.00
2022-12-11T18:01:45.810Z,7.28
2022-12-11T18:04:13.281Z,8.10
2022-12-11T18:06:43.751Z,7.45
2022-12-11T18:09:11.480Z,7.30
2022-12-11T18:11:38.892Z,6.90
2022-12-11T18:14:08.420Z,7.38
2022-12-11T18:16:38.437Z,6.85
2022-12-11T18:19:06.578Z,7.47
2022-12-11T18:21:36.234Z,7.68
2022-12-11T18:24:05.290Z,8.15
2022-12-11T18:26:32.657Z,9.27
2022-12-11T18:28:59.548Z,8.00
2022-12-11T18:31:27.838Z,9.07
2022-12-11T18:33:55.016Z,10.90
2022-12-11T18:36:23.530Z,12.20
2022-12-11T18:38:51.703Z,10.85
2022-12-11T18:41:21.169Z,12.02
2022-12-11T18:43:50.291Z,11.52
2022-12-11T18:46:20.260Z,14.00
2022-12-11T18:48:50.577Z,20.77
2022-12-11T18:51:25.519Z,9.30
2022-12-11T18:53:52.863Z,10.13
2022-12-11T18:56:21.574Z,15.15
2022-12-11T18:58:50.943Z,13.85
2022-12-11T19:01:25.127Z,11.77
2022-12-11T19:04:02.393Z,10.23
2022-12-11T19:06:39.651Z,10.15
2022-12-11T19:09:16.514Z,17.00
2022-12-11T19:11:43.948Z,14.10
2022-12-11T19:14:16.764Z,14.05
2022-12-11T19:16:45.641Z,11.15
2022-12-11T19:19:16.508Z,9.23
2022-12-11T19:21:44.573Z,8.27
2022-12-11T19:24:15.997Z,6.40
2022-12-11T19:26:44.065Z,7.35
2022-12-11T19:29:19.912Z,7.57
2022-12-11T19:31:48.774Z,6.30
2022-12-11T19:34:16.451Z,6.30
2022-12-11T19:39:26.457Z,5.88
2022-12-11T19:41:54.060Z,5.53
2022-12-11T19:44:23.943Z,5.15
2022-12-11T19:46:53.063Z,6.32
2022-12-11T19:49:24.153Z,5.53
2022-12-11T19:51:52.797Z,5.50
2022-12-11T19:54:20.593Z,5.25
2022-12-11T19:56:50.271Z,6.00
2022-12-11T19:59:20.902Z,11.65
2022-12-11T20:01:50.866Z,9.13
2022-12-11T20:04:18.653Z,10.52
2022-12-11T20:06:49.669Z,7.38
2022-12-11T20:09:17.146Z,7.20
2022-12-11T20:11:46.611Z,6.53
2022-12-11T20:14:24.569Z,6.47
2022-12-11T20:17:12.757Z,6.72
2022-12-11T20:19:43.237Z,6.10
2022-12-11T20:22:10.742Z,6.68
2022-12-11T20:24:38.001Z,5.80
2022-12-11T20:27:08.172Z,5.88
2022-12-11T20:29:35.542Z,5.63
2022-12-11T20:32:03.020Z,5.57
2022-12-11T20:34:30.113Z,5.03
2022-12-11T20:36:57.336Z,5.43
2022-12-11T20:39:25.275Z,5.15
2022-12-11T20:41:53.302Z,6.05
2022-12-11T20:44:22.190Z,6.63
2022-12-11T20:46:51.498Z,6.32
2022-12-11T20:49:19.067Z,6.15
2022-12-11T20:51:46.298Z,6.85
2022-12-11T20:54:13.416Z,6.82
2022-12-11T20:56:40.395Z,7.60
2022-12-11T20:59:11.816Z,8.45
2022-12-11T21:01:43.400Z,8.88
2022-12-11T21:04:13.105Z,7.60
2022-12-11T21:06:40.841Z,7.35
2022-12-11T21:09:13.603Z,7.85
2022-12-11T21:11:42.070Z,6.43
2022-12-11T21:14:13.661Z,5.75
2022-12-11T21:16:43.831Z,6.32
2022-12-11T21:19:16.544Z,6.10
2022-12-11T21:21:45.405Z,6.53
2022-12-11T21:24:26.724Z,7.05
2022-12-11T21:26:56.054Z,11.50
2022-12-11T21:29:25.256Z,9.35
2022-12-11T21:31:52.544Z,9.18
2022-12-11T21:34:25.026Z,12.52
2022-12-11T21:36:56.883Z,7.70
2022-12-11T21:39:26.427Z,7.45
2022-12-11T21:41:53.425Z,7.22
2022-12-11T21:47:09.714Z,6.10
2022-12-11T21:49:37.952Z,9.65
2022-12-11T21:52:06.606Z,11.07
2022-12-11T21:54:34.288Z,10.55
2022-12-11T21:57:01.661Z,10.00
2022-12-11T21:59:29.347Z,10.82
2022-12-11T22:01:56.593Z,10.82
2022-12-11T22:04:23.954Z,10.93
2022-12-11T22:06:53.286Z,8.30
2022-12-11T22:09:21.773Z,8.45
2022-12-11T22:11:50.619Z,11.65
2022-12-11T22:14:21.965Z,10.35
2022-12-11T22:16:48.922Z,8.10
2022-12-11T22:19:18.649Z,7.55
2022-12-11T22:21:45.656Z,7.47
2022-12-11T22:24:12.762Z,6.93
2022-12-11T22:26:40.374Z,8.85
2022-12-11T22:29:07.591Z,6.90
2022-12-11T22:31:35.595Z,6.90
2022-12-11T22:34:02.968Z,6.40
2022-12-11T22:36:30.330Z,6.80
2022-12-11T22:38:57.660Z,6.72
2022-12-11T22:41:30.238Z,7.38
2022-12-11T22:44:00.099Z,7.85
2022-12-11T22:46:32.441Z,7.38
2022-12-11T22:48:59.976Z,7.00
2022-12-11T22:51:27.022Z,8.13
2022-12-11T22:53:53.931Z,7.60
2022-12-11T22:56:21.221Z,7.22
2022-12-11T22:58:48.169Z,7.50
2022-12-11T23:01:21.294Z,8.02
2022-12-11T23:06:18.857Z,8.60
2022-12-11T23:08:47.265Z,7.35
2022-12-11T23:11:27.601Z,7.50
2022-12-11T23:13:55.231Z,6.88
2022-12-11T23:16:23.946Z,7.13
2022-12-11T23:18:51.945Z,6.90
2022-12-11T23:21:19.238Z,6.85
2022-12-11T23:23:47.035Z,6.73
2022-12-11T23:26:14.828Z,6.60
2022-12-11T23:28:42.534Z,7.03
2022-12-11T23:31:09.685Z,7.03
2022-12-11T23:33:37.197Z,6.88
2022-12-11T23:36:05.315Z,7.45
2022-12-11T23:38:32.997Z,5.88
2022-12-11T23:41:02.852Z,5.87
